sensor_id;sensor_type;location;lat;lon;timestamp;P1;durP1;ratioP1;P2;durP2;ratioP2
3083;SDS011;1552;51.952;7.618;2023-05-10T00:00:38;3.33;;;3.03;;
3083;SDS011;1552;51.952;7.618;2023-05-10T00:03:05;3.43;;;3.13;;
3083;SDS011;1552;51.952;7.618;2023-05-10T00:05:31;3.47;;;3.00;;
3083;SDS011;1552;51.952;7.618;2023-05-10T00:07:58;5.87;;;4.03;;
3083;SDS011;1552;51.952;7.618;2023-05-10T00:10:24;4.77;;;3.93;;
3083;SDS011;1552;51.952;7.618;2023-05-10T00:12:50;5.60;;;4.20;;
3083;SDS011;1552;51.952;7.618;2023-05-10T00:15:17;6.20;;;4.40;;
3083;SDS011;1552;51.952;7.618;2023-05-10T00:17:43;7.40;;;4.70;;
3083;SDS011;1552;51.952;7.618;2023-05-10T00:20:11;4.87;;;4.07;;
3083;SDS011;1552;51.952;7.618;2023-05-10T00:22:37;5.90;;;4.53;;
3083;SDS011;1552;51.952;7.618;2023-05-10T00:25:04;5.37;;;4.57;;
3083;SDS011;1552;51.952;7.618;2023-05-10T00:27:31;5.13;;;4.23;;
3083;SDS011;1552;51.952;7.618;2023-05-10T00:29:57;6.93;;;5.10;;
3083;SDS011;1552;51.952;7.618;2023-05-10T00:32:23;7.37;;;5.40;;
3083;SDS011;1552;51.952;7.618;2023-05-10T00:34:50;5.40;;;4.80;;
3083;SDS011;1552;51.952;7.618;2023-05-10T00:37:18;5.83;;;5.20;;
3083;SDS011;1552;51.952;7.618;2023-05-10T00:39:44;5.50;;;4.70;;
3083;SDS011;1552;51.952;7.618;2023-05-10T00:42:10;5.77;;;5.17;;
3083;SDS011;1552;51.952;7.618;2023-05-10T00:44:37;6.33;;;5.33;;
3083;SDS011;1552;51.952;7.618;2023-05-10T00:47:03;6.53;;;5.60;;
3083;SDS011;1552;51.952;7.618;2023-05-10T00:49:29;7.37;;;6.20;;
3083;SDS011;1552;51.952;7.618;2023-05-10T00:51:56;8.17;;;5.73;;
3083;SDS011;1552;51.952;7.618;2023-05-10T00:54:23;6.73;;;5.10;;
3083;SDS011;1552;51.952;7.618;2023-05-10T00:56:50;7.00;;;5.40;;
3083;SDS011;1552;51.952;7.618;2023-05-10T00:59:16;6.23;;;5.43;;
3083;SDS011;1552;51.952;7.618;2023-05-10T01:01:43;6.30;;;4.87;;
3083;SDS011;1552;51.952;7.618;2023-05-10T01:04:10;6.73;;;5.70;;
3083;SDS011;1552;51.952;7.618;2023-05-10T01:06:37;5.33;;;4.63;;
3083;SDS011;1552;51.952;7.618;2023-05-10T01:09:03;6.53;;;5.30;;
3083;SDS011;1552;51.952;7.618;2023-05-10T01:11:32;6.03;;;5.40;;
3083;SDS011;1552;51.952;7.618;2023-05-10T01:13:59;6.17;;;5.07;;
3083;SDS011;1552;51.952;7.618;2023-05-10T01:16:25;6.50;;;5.40;;
3083;SDS011;1552;51.952;7.618;2023-05-10T01:18:52;6.53;;;5.00;;
3083;SDS011;1552;51.952;7.618;2023-05-10T01:21:21;6.37;;;4.97;;
3083;SDS011;1552;51.952;7.618;2023-05-10T01:23:56;6.47;;;5.10;;
3083;SDS011;1552;51.952;7.618;2023-05-10T01:26:34;6.50;;;4.83;;
3083;SDS011;1552;51.952;7.618;2023-05-10T01:29:11;4.60;;;3.80;;
3083;SDS011;1552;51.952;7.618;2023-05-10T01:31:54;3.27;;;2.70;;
3083;SDS011;1552;51.952;7.618;2023-05-10T01:34:23;2.57;;;2.30;;
3083;SDS011;1552;51.952;7.618;2023-05-10T01:36:53;2.50;;;2.30;;
3083;SDS011;1552;51.952;7.618;2023-05-10T01:39:23;2.20;;;2.00;;
3083;SDS011;1552;51.952;7.618;2023-05-10T01:41:51;2.13;;;1.80;;
3083;SDS011;1552;51.952;7.618;2023-05-10T01:44:20;3.47;;;1.60;;
3083;SDS011;1552;51.952;7.618;2023-05-10T01:46:51;1.63;;;1.50;;
3083;SDS011;1552;51.952;7.618;2023-05-10T01:49:21;1.50;;;1.40;;
3083;SDS011;1552;51.952;7.618;2023-05-10T01:51:50;1.30;;;1.20;;
3083;SDS011;1552;51.952;7.618;2023-05-10T01:54:19;1.53;;;1.20;;
3083;SDS011;1552;51.952;7.618;2023-05-10T01:56:46;1.30;;;1.20;;
3083;SDS011;1552;51.952;7.618;2023-05-10T01:59:15;0.77;;;0.77;;
3083;SDS011;1552;51.952;7.618;2023-05-10T02:01:42;1.03;;;0.93;;
3083;SDS011;1552;51.952;7.618;2023-05-10T02:04:10;0.80;;;0.80;;
3083;SDS011;1552;51.952;7.618;2023-05-10T02:21:44;2.27;;;1.40;;
3083;SDS011;1552;51.952;7.618;2023-05-10T02:24:11;1.47;;;1.37;;
3083;SDS011;1552;51.952;7.618;2023-05-10T02:26:37;1.77;;;1.53;;
3083;SDS011;1552;51.952;7.618;2023-05-10T02:29:04;1.73;;;1.63;;
3083;SDS011;1552;51.952;7.618;2023-05-10T02:31:32;1.67;;;1.57;;
3083;SDS011;1552;51.952;7.618;2023-05-10T02:33:58;3.13;;;2.10;;
3083;SDS011;1552;51.952;7.618;2023-05-10T02:36:26;2.90;;;1.97;;
3083;SDS011;1552;51.952;7.618;2023-05-10T02:38:54;2.57;;;2.10;;
3083;SDS011;1552;51.952;7.618;2023-05-10T02:41:21;3.60;;;2.00;;
3083;SDS011;1552;51.952;7.618;2023-05-10T02:43:49;2.50;;;1.90;;
3083;SDS011;1552;51.952;7.618;2023-05-10T02:46:16;2.23;;;2.03;;
3083;SDS011;1552;51.952;7.618;2023-05-10T02:48:42;2.00;;;1.80;;
3083;SDS011;1552;51.952;7.618;2023-05-10T02:51:08;2.37;;;2.10;;
3083;SDS011;1552;51.952;7.618;2023-05-10T02:53:36;2.53;;;2.17;;
3083;SDS011;1552;51.952;7.618;2023-05-10T02:56:08;3.83;;;2.77;;
3083;SDS011;1552;51.952;7.618;2023-05-10T02:58:36;2.83;;;2.53;;
3083;SDS011;1552;51.952;7.618;2023-05-10T03:01:02;2.40;;;2.00;;
3083;SDS011;1552;51.952;7.618;2023-05-10T03:03:28;3.40;;;2.60;;
3083;SDS011;1552;51.952;7.618;2023-05-10T03:05:55;3.03;;;2.53;;
3083;SDS011;1552;51.952;7.618;2023-05-10T03:08:21;2.70;;;2.50;;
3083;SDS011;1552;51.952;7.618;2023-05-10T03:10:51;2.93;;;2.63;;
3083;SDS011;1552;51.952;7.618;2023-05-10T03:13:25;2.57;;;2.27;;
3083;SDS011;1552;51.952;7.618;2023-05-10T03:15:57;4.57;;;2.73;;
3083;SDS011;1552;51.952;7.618;2023-05-10T03:18:27;4.53;;;3.30;;
3083;SDS011;1552;51.952;7.618;2023-05-10T03:20:55;3.07;;;2.70;;
3083;SDS011;1552;51.952;7.618;2023-05-10T03:23:25;3.33;;;2.90;;
3083;SDS011;1552;51.952;7.618;2023-05-10T03:25:52;3.03;;;2.60;;
3083;SDS011;1552;51.952;7.618;2023-05-10T03:28:20;3.30;;;2.77;;
3083;SDS011;1552;51.952;7.618;2023-05-10T03:30:48;2.90;;;2.60;;
3083;SDS011;1552;51.952;7.618;2023-05-10T03:33:15;4.23;;;2.73;;
3083;SDS011;1552;51.952;7.618;2023-05-10T03:35:41;5.40;;;3.50;;
3083;SDS011;1552;51.952;7.618;2023-05-10T03:38:10;6.13;;;2.90;;
3083;SDS011;1552;51.952;7.618;2023-05-10T03:40:37;3.87;;;2.80;;
3083;SDS011;1552;51.952;7.618;2023-05-10T03:43:03;2.70;;;2.47;;
3083;SDS011;1552;51.952;7.618;2023-05-10T03:45:29;4.40;;;2.87;;
3083;SDS011;1552;51.952;7.618;2023-05-10T03:47:57;3.43;;;2.10;;
3083;SDS011;1552;51.952;7.618;2023-05-10T03:50:24;3.60;;;2.87;;
3083;SDS011;1552;51.952;7.618;2023-05-10T03:52:51;5.07;;;3.13;;
3083;SDS011;1552;51.952;7.618;2023-05-10T03:55:17;3.30;;;3.00;;
3083;SDS011;1552;51.952;7.618;2023-05-10T03:57:43;4.57;;;3.00;;
3083;SDS011;1552;51.952;7.618;2023-05-10T04:00:10;3.87;;;2.60;;
3083;SDS011;1552;51.952;7.618;2023-05-10T04:02:37;3.67;;;3.20;;
3083;SDS011;1552;51.952;7.618;2023-05-10T04:05:05;3.10;;;2.80;;
3083;SDS011;1552;51.952;7.618;2023-05-10T04:07:31;4.03;;;2.63;;
3083;SDS011;1552;51.952;7.618;2023-05-10T04:09:58;4.23;;;2.70;;
3083;SDS011;1552;51.952;7.618;2023-05-10T04:12:24;4.53;;;3.10;;
3083;SDS011;1552;51.952;7.618;2023-05-10T04:14:50;4.53;;;3.03;;
3083;SDS011;1552;51.952;7.618;2023-05-10T04:17:17;4.47;;;3.47;;
3083;SDS011;1552;51.952;7.618;2023-05-10T04:19:43;5.60;;;4.10;;
3083;SDS011;1552;51.952;7.618;2023-05-10T04:22:11;4.13;;;3.30;;
3083;SDS011;1552;51.952;7.618;2023-05-10T04:24:37;4.33;;;3.53;;
3083;SDS011;1552;51.952;7.618;2023-05-10T04:27:03;3.70;;;3.10;;
3083;SDS011;1552;51.952;7.618;2023-05-10T04:29:29;5.10;;;3.90;;
3083;SDS011;1552;51.952;7.618;2023-05-10T04:31:56;7.57;;;3.53;;
3083;SDS011;1552;51.952;7.618;2023-05-10T04:34:22;4.80;;;3.83;;
3083;SDS011;1552;51.952;7.618;2023-05-10T04:36:49;3.40;;;3.00;;
3083;SDS011;1552;51.952;7.618;2023-05-10T04:39:16;5.60;;;3.90;;
3083;SDS011;1552;51.952;7.618;2023-05-10T04:41:43;5.20;;;4.00;;
3083;SDS011;1552;51.952;7.618;2023-05-10T04:44:09;5.90;;;4.47;;
3083;SDS011;1552;51.952;7.618;2023-05-10T04:46:35;6.40;;;4.20;;
3083;SDS011;1552;51.952;7.618;2023-05-10T04:49:02;7.90;;;5.17;;
3083;SDS011;1552;51.952;7.618;2023-05-10T04:51:28;6.00;;;4.80;;
3083;SDS011;1552;51.952;7.618;2023-05-10T04:53:54;9.87;;;6.37;;
3083;SDS011;1552;51.952;7.618;2023-05-10T04:56:22;7.67;;;5.63;;
3083;SDS011;1552;51.952;7.618;2023-05-10T04:58:48;9.13;;;5.57;;
3083;SDS011;1552;51.952;7.618;2023-05-10T05:01:14;8.10;;;5.30;;
3083;SDS011;1552;51.952;7.618;2023-05-10T05:03:41;11.47;;;6.30;;
3083;SDS011;1552;51.952;7.618;2023-05-10T05:06:07;8.37;;;5.70;;
3083;SDS011;1552;51.952;7.618;2023-05-10T05:08:33;7.97;;;6.53;;
3083;SDS011;1552;51.952;7.618;2023-05-10T05:11:00;8.60;;;6.30;;
3083;SDS011;1552;51.952;7.618;2023-05-10T05:13:27;10.37;;;6.40;;
3083;SDS011;1552;51.952;7.618;2023-05-10T05:15:54;11.10;;;7.50;;
3083;SDS011;1552;51.952;7.618;2023-05-10T05:18:20;11.17;;;7.53;;
3083;SDS011;1552;51.952;7.618;2023-05-10T05:20:46;12.37;;;8.30;;
3083;SDS011;1552;51.952;7.618;2023-05-10T05:23:13;16.23;;;9.90;;
3083;SDS011;1552;51.952;7.618;2023-05-10T05:25:39;12.70;;;8.83;;
3083;SDS011;1552;51.952;7.618;2023-05-10T05:28:05;17.17;;;9.83;;
3083;SDS011;1552;51.952;7.618;2023-05-10T05:30:33;15.20;;;8.93;;
3083;SDS011;1552;51.952;7.618;2023-05-10T05:32:59;16.80;;;10.47;;
3083;SDS011;1552;51.952;7.618;2023-05-10T05:35:25;17.77;;;10.47;;
3083;SDS011;1552;51.952;7.618;2023-05-10T05:37:52;15.23;;;9.60;;
3083;SDS011;1552;51.952;7.618;2023-05-10T05:40:18;17.23;;;10.33;;
3083;SDS011;1552;51.952;7.618;2023-05-10T05:42:45;19.00;;;10.13;;
3083;SDS011;1552;51.952;7.618;2023-05-10T05:45:11;17.70;;;10.63;;
3083;SDS011;1552;51.952;7.618;2023-05-10T05:47:40;21.30;;;12.23;;
3083;SDS011;1552;51.952;7.618;2023-05-10T05:50:06;22.60;;;12.57;;
3083;SDS011;1552;51.952;7.618;2023-05-10T05:52:32;18.43;;;11.10;;
3083;SDS011;1552;51.952;7.618;2023-05-10T05:54:59;23.47;;;12.23;;
3083;SDS011;1552;51.952;7.618;2023-05-10T05:57:25;24.30;;;12.73;;
3083;SDS011;1552;51.952;7.618;2023-05-10T05:59:52;30.03;;;14.07;;
3083;SDS011;1552;51.952;7.618;2023-05-10T06:02:18;24.13;;;13.40;;
3083;SDS011;1552;51.952;7.618;2023-05-10T06:04:46;22.33;;;13.33;;
3083;SDS011;1552;51.952;7.618;2023-05-10T06:07:12;30.10;;;14.60;;
3083;SDS011;1552;51.952;7.618;2023-05-10T06:09:38;27.97;;;14.27;;
3083;SDS011;1552;51.952;7.618;2023-05-10T06:12:05;30.80;;;15.60;;
3083;SDS011;1552;51.952;7.618;2023-05-10T06:14:31;30.37;;;15.30;;
3083;SDS011;1552;51.952;7.618;2023-05-10T06:16:57;31.40;;;15.70;;
3083;SDS011;1552;51.952;7.618;2023-05-10T06:19:24;27.33;;;14.60;;
3083;SDS011;1552;51.952;7.618;2023-05-10T06:21:52;26.93;;;14.10;;
3083;SDS011;1552;51.952;7.618;2023-05-10T06:24:18;27.80;;;14.57;;
3083;SDS011;1552;51.952;7.618;2023-05-10T06:26:45;26.23;;;14.10;;
3083;SDS011;1552;51.952;7.618;2023-05-10T06:29:11;28.37;;;15.07;;
3083;SDS011;1552;51.952;7.618;2023-05-10T06:31:37;25.77;;;13.70;;
3083;SDS011;1552;51.952;7.618;2023-05-10T06:34:04;25.07;;;13.10;;
3083;SDS011;1552;51.952;7.618;2023-05-10T06:36:32;23.50;;;12.07;;
3083;SDS011;1552;51.952;7.618;2023-05-10T06:39:00;22.30;;;12.03;;
3083;SDS011;1552;51.952;7.618;2023-05-10T06:41:26;20.90;;;12.00;;
3083;SDS011;1552;51.952;7.618;2023-05-10T06:43:53;21.17;;;12.10;;
3083;SDS011;1552;51.952;7.618;2023-05-10T06:46:19;23.90;;;12.23;;
3083;SDS011;1552;51.952;7.618;2023-05-10T06:48:46;22.40;;;12.47;;
3083;SDS011;1552;51.952;7.618;2023-05-10T06:51:12;26.73;;;13.90;;
3083;SDS011;1552;51.952;7.618;2023-05-10T06:53:38;29.33;;;14.50;;
3083;SDS011;1552;51.952;7.618;2023-05-10T06:56:06;27.50;;;15.53;;
3083;SDS011;1552;51.952;7.618;2023-05-10T06:58:32;30.03;;;15.43;;
3083;SDS011;1552;51.952;7.618;2023-05-10T07:01:02;30.30;;;16.33;;
3083;SDS011;1552;51.952;7.618;2023-05-10T07:03:28;33.87;;;18.10;;
3083;SDS011;1552;51.952;7.618;2023-05-10T07:05:59;32.27;;;18.57;;
3083;SDS011;1552;51.952;7.618;2023-05-10T07:08:25;34.43;;;17.47;;
3083;SDS011;1552;51.952;7.618;2023-05-10T07:10:52;36.23;;;19.03;;
3083;SDS011;1552;51.952;7.618;2023-05-10T07:13:20;29.83;;;17.83;;
3083;SDS011;1552;51.952;7.618;2023-05-10T07:15:46;32.37;;;18.53;;
3083;SDS011;1552;51.952;7.618;2023-05-10T07:18:12;39.63;;;20.67;;
3083;SDS011;1552;51.952;7.618;2023-05-10T07:20:38;45.30;;;21.77;;
3083;SDS011;1552;51.952;7.618;2023-05-10T07:23:05;42.33;;;22.10;;
3083;SDS011;1552;51.952;7.618;2023-05-10T07:25:31;44.73;;;22.27;;
3083;SDS011;1552;51.952;7.618;2023-05-10T07:27:57;42.97;;;22.87;;
3083;SDS011;1552;51.952;7.618;2023-05-10T07:30:25;39.70;;;22.07;;
3083;SDS011;1552;51.952;7.618;2023-05-10T07:32:51;42.23;;;22.03;;
3083;SDS011;1552;51.952;7.618;2023-05-10T07:35:17;43.00;;;23.80;;
3083;SDS011;1552;51.952;7.618;2023-05-10T07:37:44;46.75;;;24.35;;
3083;SDS011;1552;51.952;7.618;2023-05-10T07:40:10;46.83;;;23.05;;
3083;SDS011;1552;51.952;7.618;2023-05-10T07:42:37;43.13;;;24.17;;
3083;SDS011;1552;51.952;7.618;2023-05-10T07:45:03;40.33;;;22.73;;
3083;SDS011;1552;51.952;7.618;2023-05-10T07:47:31;39.93;;;23.03;;
3083;SDS011;1552;51.952;7.618;2023-05-10T07:49:57;41.40;;;22.30;;
3083;SDS011;1552;51.952;7.618;2023-05-10T07:52:24;42.47;;;24.37;;
3083;SDS011;1552;51.952;7.618;2023-05-10T07:54:50;39.55;;;22.38;;
3083;SDS011;1552;51.952;7.618;2023-05-10T07:57:17;35.80;;;20.90;;
3083;SDS011;1552;51.952;7.618;2023-05-10T07:59:43;39.88;;;22.33;;
3083;SDS011;1552;51.952;7.618;2023-05-10T08:02:10;40.95;;;22.98;;
3083;SDS011;1552;51.952;7.618;2023-05-10T08:04:38;36.55;;;20.83;;
3083;SDS011;1552;51.952;7.618;2023-05-10T08:07:04;37.72;;;22.00;;
3083;SDS011;1552;51.952;7.618;2023-05-10T08:09:30;37.35;;;20.20;;
3083;SDS011;1552;51.952;7.618;2023-05-10T08:11:57;36.90;;;20.52;;
3083;SDS011;1552;51.952;7.618;2023-05-10T08:14:24;40.08;;;21.55;;
3083;SDS011;1552;51.952;7.618;2023-05-10T08:16:50;40.85;;;20.92;;
3083;SDS011;1552;51.952;7.618;2023-05-10T08:19:17;33.42;;;20.15;;
3083;SDS011;1552;51.952;7.618;2023-05-10T08:21:45;40.13;;;21.98;;
3083;SDS011;1552;51.952;7.618;2023-05-10T08:24:12;43.47;;;22.58;;
3083;SDS011;1552;51.952;7.618;2023-05-10T08:26:38;37.47;;;20.13;;
3083;SDS011;1552;51.952;7.618;2023-05-10T08:29:04;36.42;;;20.27;;
3083;SDS011;1552;51.952;7.618;2023-05-10T08:31:31;32.38;;;19.40;;
3083;SDS011;1552;51.952;7.618;2023-05-10T08:33:57;30.20;;;18.83;;
3083;SDS011;1552;51.952;7.618;2023-05-10T08:36:23;30.92;;;18.85;;
3083;SDS011;1552;51.952;7.618;2023-05-10T08:38:51;34.45;;;18.98;;
3083;SDS011;1552;51.952;7.618;2023-05-10T08:41:18;35.08;;;20.45;;
3083;SDS011;1552;51.952;7.618;2023-05-10T08:43:46;35.10;;;19.73;;
3083;SDS011;1552;51.952;7.618;2023-05-10T08:46:12;33.10;;;18.92;;
3083;SDS011;1552;51.952;7.618;2023-05-10T08:48:41;31.73;;;18.27;;
3083;SDS011;1552;51.952;7.618;2023-05-10T08:51:08;31.75;;;18.95;;
3083;SDS011;1552;51.952;7.618;2023-05-10T08:53:35;32.22;;;19.48;;
3083;SDS011;1552;51.952;7.618;2023-05-10T08:56:04;30.45;;;18.60;;
3083;SDS011;1552;51.952;7.618;2023-05-10T08:58:30;34.28;;;19.88;;
3083;SDS011;1552;51.952;7.618;2023-05-10T09:00:57;28.77;;;18.17;;
3083;SDS011;1552;51.952;7.618;2023-05-10T09:03:23;33.33;;;18.80;;
3083;SDS011;1552;51.952;7.618;2023-05-10T09:05:50;30.50;;;16.98;;
3083;SDS011;1552;51.952;7.618;2023-05-10T09:08:16;29.23;;;17.73;;
3083;SDS011;1552;51.952;7.618;2023-05-10T09:10:43;29.00;;;17.60;;
3083;SDS011;1552;51.952;7.618;2023-05-10T09:13:13;30.95;;;18.40;;
3083;SDS011;1552;51.952;7.618;2023-05-10T09:15:40;31.27;;;18.35;;
3083;SDS011;1552;51.952;7.618;2023-05-10T09:18:06;33.20;;;18.77;;
3083;SDS011;1552;51.952;7.618;2023-05-10T09:20:32;29.85;;;18.30;;
3083;SDS011;1552;51.952;7.618;2023-05-10T09:22:59;30.65;;;18.35;;
3083;SDS011;1552;51.952;7.618;2023-05-10T09:25:25;30.60;;;17.88;;
3083;SDS011;1552;51.952;7.618;2023-05-10T09:27:52;23.92;;;14.80;;
3083;SDS011;1552;51.952;7.618;2023-05-10T09:30:24;29.63;;;15.30;;
3083;SDS011;1552;51.952;7.618;2023-05-10T09:32:51;29.92;;;16.95;;
3083;SDS011;1552;51.952;7.618;2023-05-10T09:35:18;25.73;;;14.23;;
3083;SDS011;1552;51.952;7.618;2023-05-10T09:37:45;25.52;;;14.77;;
3083;SDS011;1552;51.952;7.618;2023-05-10T09:40:13;24.25;;;14.15;;
3083;SDS011;1552;51.952;7.618;2023-05-10T09:42:40;26.17;;;14.63;;
3083;SDS011;1552;51.952;7.618;2023-05-10T09:45:07;22.88;;;13.90;;
3083;SDS011;1552;51.952;7.618;2023-05-10T09:47:35;30.45;;;15.57;;
3083;SDS011;1552;51.952;7.618;2023-05-10T09:50:01;31.15;;;16.85;;
3083;SDS011;1552;51.952;7.618;2023-05-10T09:52:29;28.88;;;16.92;;
3083;SDS011;1552;51.952;7.618;2023-05-10T09:54:55;27.08;;;16.50;;
3083;SDS011;1552;51.952;7.618;2023-05-10T09:57:22;25.98;;;15.07;;
3083;SDS011;1552;51.952;7.618;2023-05-10T09:59:49;24.77;;;15.32;;
3083;SDS011;1552;51.952;7.618;2023-05-10T10:02:15;24.80;;;15.40;;
3083;SDS011;1552;51.952;7.618;2023-05-10T10:04:44;27.33;;;16.42;;
3083;SDS011;1552;51.952;7.618;2023-05-10T10:07:10;24.73;;;15.35;;
3083;SDS011;1552;51.952;7.618;2023-05-10T10:09:36;30.58;;;16.55;;
3083;SDS011;1552;51.952;7.618;2023-05-10T10:12:03;23.23;;;14.10;;
3083;SDS011;1552;51.952;7.618;2023-05-10T10:14:29;25.13;;;14.07;;
3083;SDS011;1552;51.952;7.618;2023-05-10T10:16:56;22.60;;;14.63;;
3083;SDS011;1552;51.952;7.618;2023-05-10T10:19:22;25.40;;;15.10;;
3083;SDS011;1552;51.952;7.618;2023-05-10T10:21:50;23.65;;;15.63;;
3083;SDS011;1552;51.952;7.618;2023-05-10T10:24:16;31.27;;;16.35;;
3083;SDS011;1552;51.952;7.618;2023-05-10T10:26:42;27.65;;;16.13;;
3083;SDS011;1552;51.952;7.618;2023-05-10T10:29:14;23.05;;;14.52;;
3083;SDS011;1552;51.952;7.618;2023-05-10T10:31:45;24.80;;;15.55;;
3083;SDS011;1552;51.952;7.618;2023-05-10T10:34:17;25.02;;;14.32;;
3083;SDS011;1552;51.952;7.618;2023-05-10T10:36:48;25.20;;;15.52;;
3083;SDS011;1552;51.952;7.618;2023-05-10T10:39:16;24.60;;;15.27;;
3083;SDS011;1552;51.952;7.618;2023-05-10T10:41:48;26.83;;;15.60;;
3083;SDS011;1552;51.952;7.618;2023-05-10T10:44:25;28.05;;;16.73;;
3083;SDS011;1552;51.952;7.618;2023-05-10T10:47:01;28.38;;;16.25;;
3083;SDS011;1552;51.952;7.618;2023-05-10T10:49:30;24.10;;;15.25;;
3083;SDS011;1552;51.952;7.618;2023-05-10T10:52:13;23.88;;;14.90;;
3083;SDS011;1552;51.952;7.618;2023-05-10T10:54:42;27.35;;;16.48;;
3083;SDS011;1552;51.952;7.618;2023-05-10T10:57:13;22.08;;;13.65;;
3083;SDS011;1552;51.952;7.618;2023-05-10T10:59:42;23.50;;;14.88;;
3083;SDS011;1552;51.952;7.618;2023-05-10T11:02:09;23.52;;;15.35;;
3083;SDS011;1552;51.952;7.618;2023-05-10T11:04:41;25.75;;;14.77;;
3083;SDS011;1552;51.952;7.618;2023-05-10T11:07:17;23.08;;;14.43;;
3083;SDS011;1552;51.952;7.618;2023-05-10T11:09:45;21.48;;;13.93;;
3083;SDS011;1552;51.952;7.618;2023-05-10T11:12:11;20.75;;;13.52;;
3083;SDS011;1552;51.952;7.618;2023-05-10T11:14:38;24.83;;;14.30;;
3083;SDS011;1552;51.952;7.618;2023-05-10T11:22:28;23.25;;;15.10;;
3083;SDS011;1552;51.952;7.618;2023-05-10T11:24:58;27.23;;;15.80;;
3083;SDS011;1552;51.952;7.618;2023-05-10T11:27:25;19.02;;;12.82;;
3083;SDS011;1552;51.952;7.618;2023-05-10T11:29:51;17.48;;;12.70;;
3083;SDS011;1552;51.952;7.618;2023-05-10T11:32:18;18.10;;;13.00;;
3083;SDS011;1552;51.952;7.618;2023-05-10T11:34:46;28.92;;;15.38;;
3083;SDS011;1552;51.952;7.618;2023-05-10T11:37:13;29.00;;;15.88;;
3083;SDS011;1552;51.952;7.618;2023-05-10T11:39:45;27.83;;;16.60;;
3083;SDS011;1552;51.952;7.618;2023-05-10T11:42:13;22.50;;;14.57;;
3083;SDS011;1552;51.952;7.618;2023-05-10T11:44:39;23.95;;;14.13;;
3083;SDS011;1552;51.952;7.618;2023-05-10T11:47:06;22.13;;;13.18;;
3083;SDS011;1552;51.952;7.618;2023-05-10T11:49:33;23.05;;;14.20;;
3083;SDS011;1552;51.952;7.618;2023-05-10T11:52:05;18.45;;;12.45;;
3083;SDS011;1552;51.952;7.618;2023-05-10T11:54:32;19.38;;;13.90;;
3083;SDS011;1552;51.952;7.618;2023-05-10T11:56:59;23.77;;;14.25;;
3083;SDS011;1552;51.952;7.618;2023-05-10T11:59:27;25.20;;;14.48;;
3083;SDS011;1552;51.952;7.618;2023-05-10T12:01:53;21.52;;;13.50;;
3083;SDS011;1552;51.952;7.618;2023-05-10T12:04:20;20.65;;;12.98;;
3083;SDS011;1552;51.952;7.618;2023-05-10T12:06:46;22.55;;;13.88;;
3083;SDS011;1552;51.952;7.618;2023-05-10T12:09:13;23.70;;;14.60;;
3083;SDS011;1552;51.952;7.618;2023-05-10T12:11:40;19.92;;;11.90;;
3083;SDS011;1552;51.952;7.618;2023-05-10T12:14:07;24.23;;;13.55;;
3083;SDS011;1552;51.952;7.618;2023-05-10T12:16:35;22.50;;;14.25;;
3083;SDS011;1552;51.952;7.618;2023-05-10T12:19:01;22.10;;;13.98;;
3083;SDS011;1552;51.952;7.618;2023-05-10T12:21:28;24.27;;;14.40;;
3083;SDS011;1552;51.952;7.618;2023-05-10T12:23:58;23.33;;;14.70;;
3083;SDS011;1552;51.952;7.618;2023-05-10T12:26:25;20.52;;;13.68;;
3083;SDS011;1552;51.952;7.618;2023-05-10T12:28:52;21.70;;;13.43;;
3083;SDS011;1552;51.952;7.618;2023-05-10T12:31:18;23.00;;;13.77;;
3083;SDS011;1552;51.952;7.618;2023-05-10T12:33:46;23.88;;;14.15;;
3083;SDS011;1552;51.952;7.618;2023-05-10T12:36:15;21.33;;;13.70;;
3083;SDS011;1552;51.952;7.618;2023-05-10T12:38:42;19.90;;;13.93;;
3083;SDS011;1552;51.952;7.618;2023-05-10T12:41:09;21.52;;;13.10;;
3083;SDS011;1552;51.952;7.618;2023-05-10T12:43:36;21.23;;;13.13;;
3083;SDS011;1552;51.952;7.618;2023-05-10T12:46:06;21.55;;;13.75;;
3083;SDS011;1552;51.952;7.618;2023-05-10T12:48:32;17.35;;;12.18;;
3083;SDS011;1552;51.952;7.618;2023-05-10T12:51:00;17.15;;;11.30;;
3083;SDS011;1552;51.952;7.618;2023-05-10T12:53:27;13.95;;;9.40;;
3083;SDS011;1552;51.952;7.618;2023-05-10T12:55:53;15.30;;;8.65;;
3083;SDS011;1552;51.952;7.618;2023-05-10T12:58:20;15.25;;;9.93;;
3083;SDS011;1552;51.952;7.618;2023-05-10T13:00:46;19.15;;;10.77;;
3083;SDS011;1552;51.952;7.618;2023-05-10T13:03:12;17.05;;;10.93;;
3083;SDS011;1552;51.952;7.618;2023-05-10T13:05:39;15.70;;;10.00;;
3083;SDS011;1552;51.952;7.618;2023-05-10T13:08:07;16.73;;;10.85;;
3083;SDS011;1552;51.952;7.618;2023-05-10T13:10:33;18.30;;;10.55;;
3083;SDS011;1552;51.952;7.618;2023-05-10T13:13:00;13.05;;;9.57;;
3083;SDS011;1552;51.952;7.618;2023-05-10T13:15:26;17.17;;;10.02;;
3083;SDS011;1552;51.952;7.618;2023-05-10T13:17:52;16.38;;;10.88;;
3083;SDS011;1552;51.952;7.618;2023-05-10T13:20:19;17.67;;;10.82;;
3083;SDS011;1552;51.952;7.618;2023-05-10T13:22:46;15.85;;;10.85;;
3083;SDS011;1552;51.952;7.618;2023-05-10T13:25:13;15.65;;;10.57;;
3083;SDS011;1552;51.952;7.618;2023-05-10T13:27:40;17.98;;;11.13;;
3083;SDS011;1552;51.952;7.618;2023-05-10T13:30:07;16.48;;;10.13;;
3083;SDS011;1552;51.952;7.618;2023-05-10T13:32:33;14.55;;;10.90;;
3083;SDS011;1552;51.952;7.618;2023-05-10T13:34:59;15.80;;;10.52;;
3083;SDS011;1552;51.952;7.618;2023-05-10T13:37:26;16.42;;;10.70;;
3083;SDS011;1552;51.952;7.618;2023-05-10T13:39:53;16.48;;;10.82;;
3083;SDS011;1552;51.952;7.618;2023-05-10T13:42:21;20.08;;;12.20;;
3083;SDS011;1552;51.952;7.618;2023-05-10T13:44:48;22.85;;;12.57;;
3083;SDS011;1552;51.952;7.618;2023-05-10T13:47:14;17.90;;;12.40;;
3083;SDS011;1552;51.952;7.618;2023-05-10T13:49:40;21.27;;;11.95;;
3083;SDS011;1552;51.952;7.618;2023-05-10T13:52:07;21.00;;;12.82;;
3083;SDS011;1552;51.952;7.618;2023-05-10T13:54:35;22.73;;;13.52;;
3083;SDS011;1552;51.952;7.618;2023-05-10T13:57:01;21.35;;;12.48;;
3083;SDS011;1552;51.952;7.618;2023-05-10T13:59:29;24.45;;;14.23;;
3083;SDS011;1552;51.952;7.618;2023-05-10T14:01:56;20.20;;;12.77;;
3083;SDS011;1552;51.952;7.618;2023-05-10T14:04:23;23.48;;;13.40;;
3083;SDS011;1552;51.952;7.618;2023-05-10T14:06:49;21.73;;;14.15;;
3083;SDS011;1552;51.952;7.618;2023-05-10T14:09:16;20.42;;;13.20;;
3083;SDS011;1552;51.952;7.618;2023-05-10T14:11:42;22.58;;;14.02;;
3083;SDS011;1552;51.952;7.618;2023-05-10T14:14:10;27.90;;;13.93;;
3083;SDS011;1552;51.952;7.618;2023-05-10T14:16:38;23.13;;;13.88;;
3083;SDS011;1552;51.952;7.618;2023-05-10T14:19:04;25.00;;;14.52;;
3083;SDS011;1552;51.952;7.618;2023-05-10T14:21:30;23.23;;;14.35;;
3083;SDS011;1552;51.952;7.618;2023-05-10T14:23:57;21.00;;;14.13;;
3083;SDS011;1552;51.952;7.618;2023-05-10T14:26:23;21.00;;;13.68;;
3083;SDS011;1552;51.952;7.618;2023-05-10T14:28:49;21.05;;;13.32;;
3083;SDS011;1552;51.952;7.618;2023-05-10T14:31:16;20.67;;;11.50;;
3083;SDS011;1552;51.952;7.618;2023-05-10T14:33:46;18.52;;;12.60;;
3083;SDS011;1552;51.952;7.618;2023-05-10T14:36:12;17.45;;;11.63;;
3083;SDS011;1552;51.952;7.618;2023-05-10T14:38:39;19.67;;;11.70;;
3083;SDS011;1552;51.952;7.618;2023-05-10T14:41:05;18.77;;;11.73;;
3083;SDS011;1552;51.952;7.618;2023-05-10T14:43:31;19.83;;;12.65;;
3083;SDS011;1552;51.952;7.618;2023-05-10T14:45:58;20.05;;;12.50;;
3083;SDS011;1552;51.952;7.618;2023-05-10T14:48:24;22.17;;;14.13;;
3083;SDS011;1552;51.952;7.618;2023-05-10T14:50:52;22.70;;;13.23;;
3083;SDS011;1552;51.952;7.618;2023-05-10T14:53:18;25.30;;;14.88;;
3083;SDS011;1552;51.952;7.618;2023-05-10T14:55:44;21.13;;;13.98;;
3083;SDS011;1552;51.952;7.618;2023-05-10T14:58:11;21.08;;;13.10;;
3083;SDS011;1552;51.952;7.618;2023-05-10T15:00:37;23.02;;;13.65;;
3083;SDS011;1552;51.952;7.618;2023-05-10T15:03:03;22.27;;;13.88;;
3083;SDS011;1552;51.952;7.618;2023-05-10T15:05:30;25.55;;;15.75;;
3083;SDS011;1552;51.952;7.618;2023-05-10T15:07:57;24.48;;;13.88;;
3083;SDS011;1552;51.952;7.618;2023-05-10T15:10:24;20.65;;;14.32;;
3083;SDS011;1552;51.952;7.618;2023-05-10T15:12:50;21.27;;;13.73;;
3083;SDS011;1552;51.952;7.618;2023-05-10T15:15:16;18.52;;;12.25;;
3083;SDS011;1552;51.952;7.618;2023-05-10T15:17:42;19.50;;;11.77;;